Time;durP1;ratioP1;P1;durP2;ratioP2;P2;SDS_P1;SDS_P2;PMS_P1;PMS_P2;Temp;Humidity;BMP_temperature;BMP_pressure;BME280_temperature;BME280_humidity;BME280_pressure;Samples;Min_cycle;Max_cycle;Signal;HPM_P1;HPM_P2
2022/03/10 00:02:02;;;;;;;10.77;4.60;;;;;;;-3.54;99.84;146794.73;1740500;82;21049;-57
2022/03/10 00:04:31;;;;;;;10.05;5.55;;;;;;;-3.55;99.53;146792.17;1740449;82;20981;-57
2022/03/10 00:07:00;;;;;;;10.30;5.42;;;;;;;-3.55;99.55;146793.47;1740621;82;21084;-57
2022/03/10 00:09:32;;;;;;;8.90;5.05;;;;;;;-3.55;99.61;146793.47;1759284;79;21054;-57
2022/03/10 00:12:01;;;;;;;12.07;6.17;;;;;;;-3.57;99.51;146788.34;1766444;80;20957;-57
2022/03/10 00:14:28;;;;;;;11.60;5.10;;;;;;;-3.59;99.43;146783.22;1764388;81;21068;-60
2022/03/10 00:16:56;;;;;;;11.47;6.37;;;;;;;-3.61;99.38;146778.09;1739903;82;21120;-59
2022/03/10 00:19:24;;;;;;;12.50;5.80;;;;;;;-3.63;99.59;146772.97;1740188;82;21486;-59
2022/03/10 00:21:51;;;;;;;11.83;5.93;;;;;;;-3.65;99.58;146767.78;1739696;82;21117;-59
2022/03/10 00:24:19;;;;;;;12.20;6.12;;;;;;;-3.66;99.40;146765.22;1739618;82;20998;-58
2022/03/10 00:26:47;;;;;;;14.27;5.93;;;;;;;-3.68;99.41;146760.09;1739955;81;21535;-58
2022/03/10 00:29:15;;;;;;;11.60;5.80;;;;;;;-3.70;99.47;146754.97;1744769;79;21050;-58
2022/03/10 00:31:42;;;;;;;11.55;5.55;;;;;;;-3.74;99.40;146747.28;1770177;81;21073;-58
2022/03/10 00:34:09;;;;;;;11.00;5.27;;;;;;;-3.74;99.67;146747.28;1770293;79;21115;-58
2022/03/10 00:36:37;;;;;;;13.85;6.15;;;;;;;-3.76;99.79;146742.16;1770388;79;21074;-58
2022/03/10 00:39:04;;;;;;;12.30;5.90;;;;;;;-3.78;99.88;146737.03;1770427;80;21026;-58
2022/03/10 00:41:32;;;;;;;11.40;5.55;;;;;;;-3.81;99.89;146729.34;1769695;79;21121;-58
2022/03/10 00:44:00;;;;;;;11.87;6.07;;;;;;;-3.82;100.00;146726.78;1770642;79;21480;-58
2022/03/10 00:46:28;;;;;;;10.83;5.93;;;;;;;-3.83;100.00;146724.20;1770701;81;21110;-58
2022/03/10 00:48:55;;;;;;;12.20;6.27;;;;;;;-3.87;100.00;146713.91;1769996;79;21038;-58
2022/03/10 00:51:22;;;;;;;10.77;5.63;;;;;;;-3.87;100.00;146712.66;1769743;81;21090;-58
2022/03/10 00:53:50;;;;;;;11.50;6.30;;;;;;;-3.90;100.00;146706.22;1769597;80;21089;-58
2022/03/10 00:56:17;;;;;;;10.60;5.43;;;;;;;-3.91;100.00;146703.66;1770056;80;21039;-58
2022/03/10 00:58:45;;;;;;;13.67;6.27;;;;;;;-3.94;100.00;146695.97;1769609;80;21642;-57
2022/03/10 01:01:12;;;;;;;13.27;5.93;;;;;;;-3.96;100.00;146690.84;1770160;79;20940;-57
2022/03/10 01:03:40;;;;;;;10.80;6.23;;;;;;;-3.96;100.00;146690.84;1769889;79;21038;-57
2022/03/10 01:06:08;;;;;;;13.47;6.60;;;;;;;-3.95;100.00;146693.41;1770918;81;21058;-57
2022/03/10 01:08:36;;;;;;;13.53;6.07;;;;;;;-3.96;100.00;146690.84;1770966;81;21057;-57
2022/03/10 01:11:04;;;;;;;11.23;5.17;;;;;;;-3.98;100.00;146685.72;1789136;79;21125;-58
2022/03/10 01:13:33;;;;;;;11.97;6.10;;;;;;;-4.00;100.00;146680.59;1770528;81;21628;-58
2022/03/10 01:16:00;;;;;;;14.10;6.53;;;;;;;-4.03;100.00;146675.47;1771290;79;20974;-57
2022/03/10 01:18:27;;;;;;;15.07;6.40;;;;;;;-4.01;100.00;146678.03;1770883;81;21020;-58
2022/03/10 01:20:55;;;;;;;14.87;6.43;;;;;;;-4.03;99.99;146674.16;1771362;79;21582;-58
2022/03/10 01:23:22;;;;;;;16.60;7.27;;;;;;;-4.03;100.00;146675.47;1771066;79;21259;-58
2022/03/10 01:25:49;;;;;;;12.33;6.43;;;;;;;-4.03;99.83;146675.47;1770889;79;21072;-58
2022/03/10 01:28:17;;;;;;;12.83;6.50;;;;;;;-4.03;99.60;146674.16;1770863;81;21061;-58
2022/03/10 01:30:44;;;;;;;13.57;6.50;;;;;;;-4.03;99.65;146675.47;1771102;81;21026;-57
2022/03/10 01:33:11;;;;;;;13.33;6.67;;;;;;;-4.03;99.47;146675.47;1770869;79;20940;-58
2022/03/10 01:35:39;;;;;;;11.90;5.80;;;;;;;-4.04;99.51;146672.91;1783403;79;21534;-57
2022/03/10 01:38:08;;;;;;;12.03;6.33;;;;;;;-4.06;99.42;146667.78;1787764;79;21049;-58
2022/03/10 01:40:35;;;;;;;14.63;7.07;;;;;;;-4.08;99.24;146662.64;1787077;79;21050;-56
2022/03/10 01:43:03;;;;;;;15.07;7.67;;;;;;;-4.12;99.51;146652.34;1787551;80;21078;-58
2022/03/10 01:45:30;;;;;;;12.63;6.00;;;;;;;-4.15;99.68;146643.41;1786953;79;21681;-57
2022/03/10 01:47:58;;;;;;;13.47;7.03;;;;;;;-4.18;99.26;146636.97;1787370;78;21520;-58
2022/03/10 01:50:25;;;;;;;10.83;5.57;;;;;;;-4.23;99.14;146624.16;1786800;80;21038;-57
2022/03/10 01:52:52;;;;;;;14.67;7.63;;;;;;;-4.26;99.31;146616.47;1787662;80;21090;-58
2022/03/10 01:55:20;;;;;;;11.67;6.00;;;;;;;-4.27;99.39;146613.91;1786996;80;21077;-57
2022/03/10 01:57:49;;;;;;;14.23;7.13;;;;;;;-4.30;99.47;146607.48;1787701;80;21078;-57
2022/03/10 02:00:17;;;;;;;13.77;6.83;;;;;;;-4.30;99.59;146606.22;1787509;79;21095;-58
2022/03/10 02:02:47;;;;;;;17.10;8.10;;;;;;;-4.30;99.59;146607.48;1787629;79;21553;-57
2022/03/10 02:05:14;;;;;;;15.27;7.53;;;;;;;-4.30;99.44;146606.22;1787370;80;20991;-58
2022/03/10 02:10:29;;;;;;;14.20;6.63;;;;;;;-4.35;99.07;146595.92;1801703;78;21063;-57
2022/03/10 02:12:58;;;;;;;13.83;6.70;;;;;;;-4.37;99.00;146590.81;1787686;79;21007;-58
2022/03/10 02:18:17;;;;;;;12.67;5.93;;;;;;;-4.39;99.13;146585.69;1787614;79;21510;-57
2022/03/10 02:20:44;;;;;;;11.30;6.53;;;;;;;-4.38;99.37;146586.98;1787797;80;20953;-58
2022/03/10 02:23:12;;;;;;;13.50;6.80;;;;;;;-4.39;99.60;146584.42;1787548;79;20926;-57
2022/03/10 02:25:41;;;;;;;16.73;6.83;;;;;;;-4.37;99.61;146590.81;1787139;79;21542;-58
2022/03/10 02:28:08;;;;;;;15.07;7.73;;;;;;;-4.35;99.67;146595.92;1787754;79;21191;-59
2022/03/10 02:30:36;;;;;;;16.83;8.03;;;;;;;-4.30;99.93;146606.22;1787830;80;21022;-57
2022/03/10 02:33:03;;;;;;;17.03;8.67;;;;;;;-4.25;100.00;146619.03;1787704;80;21011;-67
2022/03/10 02:35:30;;;;;;;17.20;8.33;;;;;;;-4.20;99.46;146633.16;1765888;80;21065;-66
2022/03/10 02:37:59;;;;;;;16.67;7.70;;;;;;;-4.10;98.56;146657.47;1785234;80;20950;-67
2022/03/10 02:40:26;;;;;;;20.77;9.73;;;;;;;-4.04;98.18;146671.59;1785150;80;21003;-66
2022/03/10 02:42:55;;;;;;;21.43;9.63;;;;;;;-3.99;98.28;146684.41;1785123;79;21006;-66
2022/03/10 02:45:23;;;;;;;19.20;8.53;;;;;;;-3.96;97.82;146692.14;1784577;80;21042;-66
2022/03/10 02:47:50;;;;;;;19.33;9.87;;;;;;;-3.93;97.23;146698.53;1785163;79;21073;-57
2022/03/10 02:50:18;;;;;;;19.33;9.33;;;;;;;-3.93;96.23;146698.53;1785074;80;21508;-59
2022/03/10 02:52:45;;;;;;;21.17;9.70;;;;;;;-3.92;96.13;146701.09;1784717;80;21050;-57
2022/03/10 02:55:13;;;;;;;20.47;10.13;;;;;;;-3.93;96.16;146699.83;1784750;78;21085;-59
2022/03/10 02:57:40;;;;;;;22.23;10.33;;;;;;;-3.92;96.23;146701.09;1765416;80;21014;-66
2022/03/10 03:00:08;;;;;;;24.30;9.53;;;;;;;-3.92;96.08;146701.09;1785388;79;20911;-67
2022/03/10 03:02:38;;;;;;;20.32;9.95;;;;;;;-3.92;96.11;146701.09;1785060;79;21542;-66
2022/03/10 03:05:14;;;;;;;18.07;8.43;;;;;;;-3.94;96.03;146695.97;1785082;79;21455;-67
2022/03/10 03:07:43;;;;;;;19.03;8.60;;;;;;;-3.95;96.12;146693.41;1784996;79;21507;-67
2022/03/10 03:10:12;;;;;;;20.37;9.93;;;;;;;-3.99;96.15;146684.41;1800171;78;21484;-58
2022/03/10 03:12:50;;;;;;;19.53;9.73;;;;;;;-3.99;96.24;146684.41;1786540;78;21029;-58
2022/03/10 03:15:18;;;;;;;21.27;9.93;;;;;;;-4.01;96.32;146678.03;1785406;80;21114;-57
2022/03/10 03:17:47;;;;;;;19.63;9.13;;;;;;;-4.01;96.22;146678.03;1784882;80;22112;-58
2022/03/10 03:20:15;;;;;;;17.90;9.13;;;;;;;-4.04;96.25;146671.59;1785179;80;21029;-67
2022/03/10 03:22:44;;;;;;;20.70;9.50;;;;;;;-4.06;95.98;146667.78;1784825;79;20961;-67
2022/03/10 03:25:14;;;;;;;16.90;9.17;;;;;;;-4.08;96.09;146662.64;1784796;79;20941;-67
2022/03/10 03:27:42;;;;;;;23.77;8.33;;;;;;;-4.09;96.24;146660.08;1784653;80;21768;-66
2022/03/10 03:30:12;;;;;;;16.03;7.60;;;;;;;-4.09;96.10;146660.08;1784361;80;21519;-66
2022/03/10 03:32:39;;;;;;;19.70;9.67;;;;;;;-4.10;95.94;146657.47;1783176;80;21422;-66
2022/03/10 03:35:08;;;;;;;22.37;11.07;;;;;;;-4.10;95.89;146657.47;1779466;80;21023;-66
2022/03/10 03:37:35;;;;;;;20.00;10.30;;;;;;;-4.09;95.66;146658.78;1766594;80;20963;-57
2022/03/10 03:40:04;;;;;;;19.53;8.47;;;;;;;-4.07;96.04;146665.22;1766795;80;22106;-56
2022/03/10 03:42:35;;;;;;;21.03;9.83;;;;;;;-4.07;95.99;146665.22;1766992;81;20974;-66
2022/03/10 03:45:04;;;;;;;17.43;7.97;;;;;;;-4.08;96.05;146662.64;1766754;81;21539;-58
2022/03/10 03:47:31;;;;;;;21.37;10.27;;;;;;;-4.12;95.65;146652.34;1766745;81;21039;-65
2022/03/10 03:49:59;;;;;;;22.60;9.53;;;;;;;-4.15;95.46;146643.41;1766744;81;21074;-58
2022/03/10 03:52:27;;;;;;;22.73;9.03;;;;;;;-4.21;95.61;146629.28;1766559;81;21167;-65
2022/03/10 03:54:54;;;;;;;22.83;10.90;;;;;;;-4.21;95.64;146629.28;1766632;81;21008;-66
2022/03/10 03:57:22;;;;;;;18.53;8.67;;;;;;;-4.22;95.50;146626.72;1766733;81;21476;-58
2022/03/10 03:59:51;;;;;;;25.37;11.67;;;;;;;-4.23;94.85;146624.16;1766528;80;21002;-57
2022/03/10 04:02:19;;;;;;;23.40;10.47;;;;;;;-4.21;94.90;146629.28;1766701;81;21030;-58
2022/03/10 04:04:54;;;;;;;18.90;9.40;;;;;;;-4.20;94.88;146631.84;1766176;80;21217;-59
2022/03/10 04:07:22;;;;;;;18.57;9.00;;;;;;;-4.19;94.65;146634.41;1766516;80;21023;-59
2022/03/10 04:09:51;;;;;;;20.20;10.13;;;;;;;-4.20;93.90;146631.84;1779917;79;20977;-59
2022/03/10 04:12:18;;;;;;;24.67;11.03;;;;;;;-4.20;93.80;146631.84;1808359;78;21017;-68
2022/03/10 04:14:48;;;;;;;23.77;11.47;;;;;;;-4.20;94.00;146631.84;1803908;78;21524;-66
2022/03/10 04:17:16;;;;;;;19.97;9.80;;;;;;;-4.18;94.09;146636.97;1770803;81;21165;-66
2022/03/10 04:19:49;;;;;;;19.47;10.37;;;;;;;-4.19;93.07;146634.41;1795952;79;20966;-66
2022/03/10 04:22:17;;;;;;;18.97;10.23;;;;;;;-4.16;92.81;146642.09;1811304;79;21043;-66
2022/03/10 04:25:06;;;;;;;21.33;10.00;;;;;;;-4.14;92.93;146645.97;1810379;78;21094;-58
2022/03/10 04:27:34;;;;;;;22.30;11.07;;;;;;;-4.13;92.65;146649.78;1811807;79;21019;-57
2022/03/10 04:30:04;;;;;;;22.23;10.47;;;;;;;-4.10;92.69;146657.47;1789505;79;22497;-57
2022/03/10 04:32:46;;;;;;;21.43;10.33;;;;;;;-4.06;92.60;146667.78;1767227;81;21058;-66
2022/03/10 04:35:16;;;;;;;21.67;10.60;;;;;;;-4.06;91.67;146667.78;1766422;80;21098;-67
2022/03/10 04:37:45;;;;;;;17.43;8.17;;;;;;;-4.06;91.21;146666.47;1766629;80;21441;-67
2022/03/10 04:40:12;;;;;;;19.63;9.53;;;;;;;-4.06;90.20;146666.47;1743223;81;21034;-67
2022/03/10 04:42:39;;;;;;;22.87;10.33;;;;;;;-4.08;89.88;146661.34;1766613;80;21728;-67
2022/03/10 04:45:08;;;;;;;21.63;10.40;;;;;;;-4.08;89.79;146662.64;1766605;81;21078;-58
2022/03/10 04:47:37;;;;;;;18.50;9.53;;;;;;;-4.07;89.38;146663.91;1767087;81;20975;-67
2022/03/10 04:50:06;;;;;;;20.47;9.87;;;;;;;-4.07;89.20;146665.22;1766775;81;21509;-67
2022/03/10 04:52:34;;;;;;;19.63;9.53;;;;;;;-4.05;89.23;146670.34;1767274;81;21027;-66
2022/03/10 04:55:01;;;;;;;21.80;9.00;;;;;;;-4.00;89.53;146680.59;1766598;81;21230;-67
2022/03/10 04:57:29;;;;;;;21.60;9.83;;;;;;;-3.99;89.06;146683.16;1766972;81;21026;-66
2022/03/10 04:59:56;;;;;;;24.53;10.67;;;;;;;-3.96;88.78;146690.84;1766868;81;21035;-57
2022/03/10 05:02:24;;;;;;;21.73;10.43;;;;;;;-3.94;88.79;146695.97;1766877;81;21523;-66
2022/03/10 05:04:51;;;;;;;22.73;10.27;;;;;;;-3.91;88.60;146703.66;1766626;81;21017;-57
2022/03/10 05:07:19;;;;;;;17.53;9.33;;;;;;;-3.87;88.66;146713.91;1766728;80;21452;-59
2022/03/10 05:09:46;;;;;;;18.33;8.77;;;;;;;-3.84;88.58;146721.64;1776096;79;21060;-57
2022/03/10 05:12:14;;;;;;;24.53;10.47;;;;;;;-3.84;86.32;146721.64;1778734;79;21027;-58
2022/03/10 05:14:42;;;;;;;19.67;8.80;;;;;;;-3.82;86.13;146725.47;1770568;79;21057;-67
2022/03/10 05:17:09;;;;;;;21.13;9.10;;;;;;;-3.81;85.26;146729.34;1771174;79;20930;-58
2022/03/10 05:19:37;;;;;;;15.57;7.67;;;;;;;-3.80;85.67;146730.59;1770907;79;21551;-57
2022/03/10 05:22:05;;;;;;;18.50;8.97;;;;;;;-3.81;84.97;146728.03;1770987;79;21407;-65
2022/03/10 05:24:33;;;;;;;17.30;7.40;;;;;;;-3.78;85.25;146737.03;1770466;79;20965;-57
2022/03/10 05:27:01;;;;;;;18.37;9.15;;;;;;;-3.76;85.17;146742.16;1770114;81;21621;-58
2022/03/10 05:29:29;;;;;;;18.90;9.15;;;;;;;-3.73;85.83;146748.59;1746572;81;21058;-66
2022/03/10 05:31:57;;;;;;;24.27;9.70;;;;;;;-3.72;85.40;146749.84;1766451;81;21119;-66
2022/03/10 05:34:25;;;;;;;21.87;9.97;;;;;;;-3.71;86.29;146752.41;1765959;81;20983;-66
2022/03/10 05:36:52;;;;;;;16.43;8.00;;;;;;;-3.74;86.58;146747.28;1765855;81;21042;-66
2022/03/10 05:39:19;;;;;;;22.43;9.67;;;;;;;-3.76;86.51;146742.16;1765903;81;21102;-58
2022/03/10 05:41:47;;;;;;;14.10;6.67;;;;;;;-3.76;86.29;146742.16;1765706;81;21055;-58
2022/03/10 05:44:14;;;;;;;14.87;7.60;;;;;;;-3.76;86.46;146742.16;1765694;81;21136;-66
2022/03/10 05:46:42;;;;;;;17.73;8.13;;;;;;;-3.75;85.42;146744.72;1765394;81;21047;-66
2022/03/10 05:49:10;;;;;;;15.47;7.57;;;;;;;-3.74;84.91;146747.28;1765700;81;21024;-66
2022/03/10 05:51:38;;;;;;;17.83;8.43;;;;;;;-3.72;84.12;146751.16;1765513;80;21073;-67
2022/03/10 05:54:06;;;;;;;12.83;6.93;;;;;;;-3.70;84.02;146756.28;1765639;81;20978;-58
2022/03/10 05:56:34;;;;;;;15.83;7.07;;;;;;;-3.68;83.69;146760.09;1766134;81;21243;-58
2022/03/10 05:59:01;;;;;;;15.43;8.25;;;;;;;-3.65;84.12;146769.09;1765728;80;21515;-59
2022/03/10 06:01:29;;;;;;;13.23;6.30;;;;;;;-3.63;83.35;146772.97;1766226;81;20975;-57
2022/03/10 06:03:58;;;;;;;17.97;7.90;;;;;;;-3.67;82.42;146762.66;1765682;80;21514;-58
2022/03/10 06:06:26;;;;;;;9.90;5.43;;;;;;;-3.67;83.04;146762.66;1765659;81;21058;-57
2022/03/10 06:08:54;;;;;;;15.00;7.40;;;;;;;-3.69;83.48;146757.53;1765574;81;21513;-57
2022/03/10 06:11:22;;;;;;;13.55;7.47;;;;;;;-3.69;83.39;146757.53;1760316;79;21057;-66
2022/03/10 06:13:50;;;;;;;11.20;6.30;;;;;;;-3.68;83.14;146760.09;1770999;79;21427;-59
2022/03/10 06:16:18;;;;;;;16.87;8.07;;;;;;;-3.70;81.92;146754.97;1771062;79;21511;-59
2022/03/10 06:18:46;;;;;;;13.70;6.40;;;;;;;-3.70;81.85;146756.28;1770702;81;21044;-59
2022/03/10 06:21:14;;;;;;;13.95;7.08;;;;;;;-3.70;80.59;146754.97;1771259;81;21443;-59
2022/03/10 06:23:41;;;;;;;19.80;7.53;;;;;;;-3.70;80.73;146754.97;1770388;79;21139;-59
2022/03/10 06:26:08;;;;;;;16.20;7.53;;;;;;;-3.68;80.06;146760.09;1771236;81;21068;-67
2022/03/10 06:28:37;;;;;;;18.63;7.17;;;;;;;-3.65;80.04;146767.78;1770637;81;21470;-67
2022/03/10 06:31:04;;;;;;;14.90;7.00;;;;;;;-3.59;80.02;146783.22;1771236;79;21094;-66
2022/03/10 06:33:35;;;;;;;15.73;8.27;;;;;;;-3.49;80.14;146808.86;1770878;81;21772;-66
2022/03/10 06:36:05;;;;;;;17.47;8.20;;;;;;;-3.36;80.19;146839.67;1770950;79;21035;-57
2022/03/10 06:38:32;;;;;;;14.90;7.93;;;;;;;-3.25;79.81;146866.62;1770741;79;21364;-58
2022/03/10 06:41:00;;;;;;;13.68;7.45;;;;;;;-3.17;79.79;146888.45;1771092;81;21030;-58
2022/03/10 06:43:27;;;;;;;14.85;7.28;;;;;;;-3.01;78.85;146926.94;1770731;79;21030;-58
2022/03/10 06:45:54;;;;;;;15.23;7.40;;;;;;;-2.80;78.34;146979.59;1770971;79;21209;-58
2022/03/10 06:48:22;;;;;;;13.08;7.67;;;;;;;-2.66;77.83;147012.95;1770848;79;20944;-57
2022/03/10 06:50:49;;;;;;;15.40;7.42;;;;;;;-2.53;77.98;147045.09;1770984;79;21043;-67
2022/03/10 06:53:17;;;;;;;14.83;7.00;;;;;;;-2.33;76.87;147095.16;1770673;79;21042;-67
2022/03/10 06:55:44;;;;;;;13.30;6.90;;;;;;;-2.29;74.18;147105.44;1770396;79;21097;-66
2022/03/10 06:58:13;;;;;;;14.90;5.83;;;;;;;-2.25;74.61;147114.44;1771357;80;21484;-67
2022/03/10 07:00:40;;;;;;;13.35;7.25;;;;;;;-2.29;74.08;147105.44;1771066;81;20994;-67
2022/03/10 07:03:09;;;;;;;10.80;6.05;;;;;;;-2.35;74.46;147091.28;1771045;79;21453;-66
2022/03/10 07:05:36;;;;;;;12.60;6.55;;;;;;;-2.44;75.11;147068.19;1770674;79;21034;-66
2022/03/10 07:08:05;;;;;;;15.85;7.67;;;;;;;-2.49;75.02;147055.36;1771312;80;21043;-66
2022/03/10 07:10:34;;;;;;;14.53;6.20;;;;;;;-2.53;74.62;147046.36;1789069;78;21248;-66
2022/03/10 07:13:01;;;;;;;13.55;6.42;;;;;;;-2.60;74.20;147029.66;1771039;79;21017;-65
2022/03/10 07:15:29;;;;;;;10.00;5.65;;;;;;;-2.63;74.25;147021.95;1771128;79;21239;-65
2022/03/10 07:17:56;;;;;;;10.65;5.62;;;;;;;-2.65;73.10;147016.81;1770956;79;21136;-65
2022/03/10 07:20:24;;;;;;;9.88;5.12;;;;;;;-2.68;72.95;147007.81;1770972;81;20953;-65
2022/03/10 07:22:51;;;;;;;10.43;5.22;;;;;;;-2.65;73.33;147016.81;1770455;81;21280;-65
2022/03/10 07:25:20;;;;;;;12.85;5.22;;;;;;;-2.62;72.53;147024.52;1770749;81;38429;-65
2022/03/10 07:27:48;;;;;;;10.45;5.15;;;;;;;-2.55;73.25;147039.91;1770971;79;21013;-65
2022/03/10 07:30:15;;;;;;;12.93;5.10;;;;;;;-2.52;72.40;147048.92;1768532;79;21051;-65
2022/03/10 07:32:43;;;;;;;12.85;5.17;;;;;;;-2.46;72.41;147063.06;1766539;81;21582;-64
2022/03/10 07:35:12;;;;;;;9.90;4.87;;;;;;;-2.39;72.69;147081.03;1766310;81;21470;-66
2022/03/10 07:37:40;;;;;;;10.82;5.25;;;;;;;-2.36;71.36;147087.47;1778458;80;21527;-66
2022/03/10 07:40:10;;;;;;;9.68;4.72;;;;;;;-2.31;71.70;147100.30;1783092;80;21046;-66
2022/03/10 07:42:37;;;;;;;9.80;5.25;;;;;;;-2.26;70.57;147111.87;1783386;80;20986;-65
2022/03/10 07:45:09;;;;;;;9.35;4.78;;;;;;;-2.16;71.72;147137.53;1783032;80;21482;-65
2022/03/10 07:47:37;;;;;;;8.98;4.65;;;;;;;-2.08;71.86;147156.81;1782928;80;21407;-66
2022/03/10 07:50:06;;;;;;;10.23;4.87;;;;;;;-2.04;70.74;147167.09;1783071;80;21001;-65
2022/03/10 07:52:33;;;;;;;10.05;4.70;;;;;;;-2.12;70.72;147146.55;1785201;80;20968;-66
2022/03/10 07:55:03;;;;;;;15.72;5.53;;;;;;;-2.16;70.84;147137.53;1784256;78;21089;-65
2022/03/10 07:57:31;;;;;;;10.18;5.08;;;;;;;-2.15;71.37;147140.11;1784917;80;21589;-65
2022/03/10 07:59:58;;;;;;;9.80;4.67;;;;;;;-2.15;70.81;147140.11;1792349;78;21113;-67
2022/03/10 08:02:26;;;;;;;11.65;5.37;;;;;;;-2.18;69.70;147132.41;1819945;77;20953;-66
2022/03/10 08:04:53;;;;;;;9.60;4.70;;;;;;;-2.22;70.34;147123.41;1820061;78;21059;-65
2022/03/10 08:07:22;;;;;;;8.55;4.55;;;;;;;-2.27;70.16;147109.31;1819981;77;21043;-65
2022/03/10 08:09:49;;;;;;;9.28;4.97;;;;;;;-2.34;70.36;147093.86;1810012;78;21084;-66
2022/03/10 08:12:17;;;;;;;8.68;4.60;;;;;;;-2.34;70.36;147093.86;1780066;79;21276;-66
2022/03/10 08:14:44;;;;;;;8.53;4.95;;;;;;;-2.24;70.18;147117.00;1779069;78;21038;-66
2022/03/10 08:17:12;;;;;;;10.93;4.90;;;;;;;-2.09;69.58;147155.56;1785284;80;20932;-65
2022/03/10 08:19:40;;;;;;;9.43;4.90;;;;;;;-1.95;69.39;147188.94;1785127;80;21485;-65
2022/03/10 08:22:09;;;;;;;11.68;5.08;;;;;;;-1.87;68.16;147209.53;1785354;79;21541;-66
2022/03/10 08:24:38;;;;;;;8.88;3.95;;;;;;;-1.77;67.81;147235.20;1785162;80;21253;-66
2022/03/10 08:27:06;;;;;;;12.35;3.80;;;;;;;-1.61;66.34;147273.77;1785390;79;21115;-65
2022/03/10 08:29:33;;;;;;;9.45;4.10;;;;;;;-1.43;66.64;147317.48;1784806;79;21006;-65
2022/03/10 08:32:01;;;;;;;10.32;4.85;;;;;;;-1.32;65.93;147347.05;1785171;79;21030;-65
2022/03/10 08:34:28;;;;;;;9.00;4.65;;;;;;;-1.27;65.58;147357.31;1784742;79;21030;-65
2022/03/10 08:36:57;;;;;;;8.63;4.97;;;;;;;-1.25;66.16;147363.72;1779666;79;21217;-65
2022/03/10 08:39:24;;;;;;;14.50;6.10;;;;;;;-1.16;67.11;147386.89;1770118;81;21054;-65
2022/03/10 08:41:51;;;;;;;7.20;4.17;;;;;;;-1.08;67.59;147406.19;1770048;81;21042;-66
2022/03/10 08:44:20;;;;;;;6.87;3.95;;;;;;;-1.21;65.54;147374.05;1769952;81;21007;-65
2022/03/10 08:46:47;;;;;;;7.65;4.20;;;;;;;-1.36;66.15;147335.47;1770258;79;21074;-66
2022/03/10 08:49:16;;;;;;;7.90;3.80;;;;;;;-1.51;65.79;147299.45;1746290;80;21827;-66
2022/03/10 08:51:45;;;;;;;6.83;4.03;;;;;;;-1.57;67.16;147284.03;1770430;80;21121;-66
2022/03/10 08:54:12;;;;;;;5.90;3.33;;;;;;;-1.54;68.14;147291.75;1771076;80;21003;-66
2022/03/10 08:56:40;;;;;;;6.33;3.45;;;;;;;-1.42;66.63;147321.31;1770665;79;21117;-66
2022/03/10 08:59:07;;;;;;;8.10;4.00;;;;;;;-1.33;66.31;147343.17;1770917;79;21038;-66
2022/03/10 09:01:34;;;;;;;9.83;3.80;;;;;;;-1.29;66.98;147353.44;1771214;79;21109;-66
2022/03/10 09:04:02;;;;;;;5.90;3.25;;;;;;;-1.28;66.96;147356.02;1770874;80;21018;-66
2022/03/10 09:06:30;;;;;;;9.33;4.22;;;;;;;-1.39;65.88;147327.75;1770973;79;21039;-66
2022/03/10 09:08:57;;;;;;;7.78;4.05;;;;;;;-1.53;66.75;147294.31;1770814;80;21026;-66
2022/03/10 09:11:25;;;;;;;6.58;3.00;;;;;;;-1.65;67.08;147264.75;1786424;79;21545;-67
2022/03/10 09:13:53;;;;;;;6.92;3.08;;;;;;;-1.66;68.07;147262.19;1764503;81;21211;-66
2022/03/10 09:16:21;;;;;;;8.35;3.20;;;;;;;-1.71;66.00;147248.03;1769757;79;21030;-66
2022/03/10 09:18:51;;;;;;;13.25;4.15;;;;;;;-1.60;67.06;147276.34;1770969;81;21597;-66
2022/03/10 09:21:19;;;;;;;6.50;3.42;;;;;;;-1.42;65.66;147321.31;1771099;81;21006;-67
2022/03/10 09:23:46;;;;;;;7.37;3.40;;;;;;;-1.32;61.94;147347.05;1770611;79;21091;-66
2022/03/10 09:26:15;;;;;;;7.50;3.33;;;;;;;-1.25;61.63;147362.47;1771388;79;21241;-66
2022/03/10 09:28:43;;;;;;;7.37;3.25;;;;;;;-1.22;60.42;147371.42;1770965;81;21021;-66
2022/03/10 09:31:12;;;;;;;6.78;3.15;;;;;;;-1.19;61.11;147377.88;1766865;81;21039;-66
2022/03/10 09:33:41;;;;;;;7.58;3.62;;;;;;;-1.22;62.19;147371.42;1766535;81;21069;-66
2022/03/10 09:36:09;;;;;;;7.47;3.25;;;;;;;-1.29;61.46;147353.44;1766580;80;21101;-65
2022/03/10 09:38:36;;;;;;;11.18;2.92;;;;;;;-1.39;59.25;147327.75;1780885;80;22366;-65
2022/03/10 09:41:04;;;;;;;7.53;2.87;;;;;;;-1.41;58.75;147323.88;1783445;80;21034;-65
2022/03/10 09:43:32;;;;;;;7.67;4.00;;;;;;;-1.34;59.63;147340.59;1782860;80;21567;-65
2022/03/10 09:46:00;;;;;;;7.70;3.47;;;;;;;-1.18;60.54;147381.75;1783392;80;21415;-63
2022/03/10 09:48:31;;;;;;;8.88;4.20;;;;;;;-1.04;61.10;147416.47;1783533;80;21613;-66
2022/03/10 09:50:58;;;;;;;10.70;4.15;;;;;;;-1.04;62.71;147416.47;1783230;80;21321;-66
2022/03/10 09:53:25;;;;;;;10.20;4.15;;;;;;;-1.22;65.65;147370.16;1783394;80;21042;-66
2022/03/10 09:55:54;;;;;;;7.47;3.60;;;;;;;-1.43;67.63;147318.75;1783266;79;21029;-67
2022/03/10 09:58:21;;;;;;;5.47;3.12;;;;;;;-1.60;66.09;147276.34;1783314;80;21073;-66
2022/03/10 10:00:49;;;;;;;11.75;4.50;;;;;;;-1.70;65.96;147250.61;1783067;80;21511;-66
2022/03/10 10:03:16;;;;;;;6.87;3.90;;;;;;;-1.74;66.00;147242.91;1783410;80;21258;-67
2022/03/10 10:05:44;;;;;;;8.05;3.65;;;;;;;-1.62;65.94;147272.47;1782987;80;21499;-65
2022/03/10 10:08:17;;;;;;;8.58;4.30;;;;;;;-1.45;64.30;147313.59;1783655;80;21038;-67
2022/03/10 10:10:50;;;;;;;8.35;4.22;;;;;;;-1.33;64.39;147343.17;1768543;80;21087;-64
2022/03/10 10:13:39;;;;;;;10.70;4.72;;;;;;;-1.19;64.44;147379.19;1784539;80;21072;-68
2022/03/10 10:16:13;;;;;;;9.18;4.62;;;;;;;-1.02;64.64;147420.28;1765207;80;21446;-67
2022/03/10 10:18:41;;;;;;;6.87;3.50;;;;;;;-0.85;62.33;147461.45;1784611;80;22110;-65
2022/03/10 10:21:10;;;;;;;8.55;3.27;;;;;;;-0.79;59.59;147476.88;1784939;79;21025;-66
2022/03/10 10:23:38;;;;;;;9.98;4.28;;;;;;;-0.84;62.60;147464.03;1784932;79;20917;-65
2022/03/10 10:26:11;;;;;;;9.40;4.45;;;;;;;-1.12;69.44;147395.86;1784922;79;21060;-65
2022/03/10 10:28:41;;;;;;;7.75;3.50;;;;;;;-1.35;67.64;147338.03;1785127;79;21130;-65
2022/03/10 10:31:11;;;;;;;7.75;3.85;;;;;;;-1.52;63.31;147296.88;1783241;80;21038;-65
2022/03/10 10:34:11;;;;;;;8.00;3.58;;;;;;;-1.56;62.73;147286.61;1782905;80;21041;-65
2022/03/10 10:36:41;;;;;;;10.43;4.05;;;;;;;-1.47;60.82;147309.72;1783805;80;21494;-57
2022/03/10 10:39:18;;;;;;;8.85;3.67;;;;;;;-1.35;60.62;147339.30;1783502;80;21073;-57
2022/03/10 10:41:47;;;;;;;8.05;3.87;;;;;;;-1.27;62.72;147358.58;1747809;80;21763;-57
2022/03/10 10:44:20;;;;;;;8.63;4.33;;;;;;;-1.21;63.11;147374.05;1783456;80;21042;-58
2022/03/10 10:46:49;;;;;;;7.17;3.60;;;;;;;-1.22;62.90;147370.16;1783362;80;21096;-66
2022/03/10 10:49:58;;;;;;;8.93;4.10;;;;;;;-1.33;61.61;147343.17;1783474;80;21082;-64
2022/03/10 10:52:25;;;;;;;8.23;3.77;;;;;;;-1.42;60.66;147320.05;1768170;78;20994;-65
2022/03/10 10:55:12;;;;;;;9.58;4.42;;;;;;;-1.32;62.03;147345.73;1784719;80;21932;-65
2022/03/10 10:57:39;;;;;;;9.30;4.28;;;;;;;-1.32;62.29;147345.73;1784849;79;21048;-65
2022/03/10 11:00:10;;;;;;;12.40;4.95;;;;;;;-1.40;64.80;147325.19;1784545;79;21548;-65
2022/03/10 11:02:45;;;;;;;7.22;3.90;;;;;;;-1.48;65.82;147307.16;1784724;79;21476;-65
2022/03/10 11:05:11;;;;;;;10.55;4.65;;;;;;;-1.53;68.05;147294.31;1783820;80;21526;-67
2022/03/10 11:07:42;;;;;;;9.10;4.12;;;;;;;-1.55;65.71;147287.88;1785142;79;21237;-66
2022/03/10 11:10:11;;;;;;;11.05;4.22;;;;;;;-1.50;63.77;147302.02;1785049;80;21578;-66
2022/03/10 11:12:41;;;;;;;8.40;4.00;;;;;;;-1.49;67.56;147303.33;1785007;80;20984;-66
2022/03/10 11:15:10;;;;;;;8.58;4.53;;;;;;;-1.56;66.85;147286.61;1785200;79;21085;-65
2022/03/10 11:17:38;;;;;;;7.37;4.08;;;;;;;-1.65;65.18;147263.50;1784618;80;20991;-66
2022/03/10 11:20:09;;;;;;;8.60;4.58;;;;;;;-1.62;64.57;147271.20;1784954;80;21121;-66
2022/03/10 11:22:55;;;;;;;13.05;4.80;;;;;;;-1.59;66.18;147278.91;1785175;80;20980;-66
2022/03/10 11:25:42;;;;;;;;;;;;;;;-1.48;65.88;147307.16;1787527;80;21355;-66
2022/03/10 11:28:18;;;;;;;9.90;4.45;;;;;;;-1.45;63.40;147314.86;1784994;78;20151;-65
2022/03/10 11:31:00;;;;;;;9.23;3.87;;;;;;;-1.45;61.70;147314.86;1784843;80;21036;-64
2022/03/10 11:33:32;;;;;;;10.63;3.67;;;;;;;-1.43;59.51;147317.48;1785018;80;21082;-66